Laton, California
Current Conditions -  °F | °C
As of 9:04 AM on Wednesday 26 Nov 2014 (Local Time) from KHJO Reporting Station
Haze Haze  
Wind Chill: 43°   Ceiling: Unl
Heat Index: 45°   Visibility: 1.2mi
Dew Point: 44°   Wind: 5mph
Humidity: 97%   Direction: 200°SSW
Pressure: 30.36"   Gusts: NA
Location:  36.43°N, 119.69°W
Report Text: KHJO 261704Z AUTO 20004KT 1 1/4SM BR FEW002 SCT005 07/07 A3036 RMK AO2 T00720067
Loading
Personal Weather Stations






























Interactive Weather Map New forecast layout! Learn more

10-Day Weather Forecast

Advertisements
Track Severe Weather on mobile